createdAt,value
2017-11-13T00:01:07.590Z,4.30
2017-11-13T00:03:34.056Z,5.32
2017-11-13T00:06:00.988Z,4.47
2017-11-13T00:08:27.921Z,5.30
2017-11-13T00:10:54.759Z,4.30
2017-11-13T00:13:22.049Z,4.70
2017-11-13T00:15:48.891Z,4.97
2017-11-13T00:18:16.622Z,5.15
2017-11-13T00:20:44.097Z,5.35
2017-11-13T00:23:10.355Z,4.93
2017-11-13T00:25:37.740Z,4.70
2017-11-13T00:28:04.001Z,4.57
2017-11-13T00:30:31.987Z,5.57
2017-11-13T00:32:58.222Z,5.45
2017-11-13T00:35:24.596Z,4.20
2017-11-13T00:37:51.392Z,4.55
2017-11-13T00:40:17.900Z,5.37
2017-11-13T00:42:44.916Z,3.60
2017-11-13T00:45:11.668Z,5.15
2017-11-13T00:47:39.199Z,5.00
2017-11-13T00:50:06.928Z,5.03
2017-11-13T00:52:34.033Z,4.87
2017-11-13T00:55:01.580Z,3.85
2017-11-13T00:57:29.228Z,3.87
2017-11-13T00:59:56.220Z,4.10
2017-11-13T01:02:24.985Z,3.85
2017-11-13T01:04:52.328Z,4.35
2017-11-13T01:07:20.495Z,4.35
2017-11-13T01:09:47.313Z,3.80
2017-11-13T01:12:13.684Z,4.45
2017-11-13T01:14:40.676Z,4.65
2017-11-13T01:17:07.920Z,5.05
2017-11-13T01:19:35.480Z,4.57
2017-11-13T01:22:02.782Z,4.82
2017-11-13T01:24:29.487Z,3.90
2017-11-13T01:26:55.683Z,4.87
2017-11-13T01:29:22.644Z,4.35
2017-11-13T01:31:49.942Z,5.75
2017-11-13T01:34:16.947Z,5.37
2017-11-13T01:36:43.703Z,5.40
2017-11-13T01:39:10.472Z,5.10
2017-11-13T01:41:36.882Z,4.32
2017-11-13T01:44:03.948Z,4.90
2017-11-13T01:46:30.449Z,5.43
2017-11-13T01:48:58.397Z,5.12
2017-11-13T01:51:24.681Z,6.53
2017-11-13T01:53:50.882Z,6.37
2017-11-13T01:56:18.412Z,7.57
2017-11-13T01:58:45.931Z,8.25
2017-11-13T02:01:12.692Z,6.72
2017-11-13T02:03:39.018Z,7.47
2017-11-13T02:06:05.444Z,7.15
2017-11-13T02:08:33.245Z,9.32
2017-11-13T02:10:59.527Z,7.53
2017-11-13T02:13:26.012Z,10.60
2017-11-13T02:15:53.444Z,8.98
2017-11-13T02:18:20.908Z,9.52
2017-11-13T02:20:48.074Z,10.27
2017-11-13T02:23:15.218Z,10.65
2017-11-13T02:25:42.272Z,11.43
2017-11-13T02:28:08.689Z,10.18
2017-11-13T02:30:36.000Z,10.10
2017-11-13T02:33:02.886Z,11.00
2017-11-13T02:35:30.463Z,11.50
2017-11-13T02:37:58.058Z,12.73
2017-11-13T02:40:25.766Z,10.93
2017-11-13T02:42:52.818Z,12.48
2017-11-13T02:45:20.426Z,9.80
2017-11-13T02:47:47.248Z,11.27
2017-11-13T02:50:14.481Z,11.25
2017-11-13T02:52:41.727Z,10.65
2017-11-13T02:55:09.225Z,13.82
2017-11-13T02:57:37.292Z,12.00
2017-11-13T03:00:03.565Z,9.85
2017-11-13T03:02:29.784Z,13.35
2017-11-13T03:04:57.493Z,15.45
2017-11-13T03:07:24.560Z,11.82
2017-11-13T03:09:51.752Z,10.93
2017-11-13T03:12:17.974Z,13.10
2017-11-13T03:14:44.164Z,10.65
2017-11-13T03:17:10.377Z,14.55
2017-11-13T03:19:36.587Z,10.48
2017-11-13T03:22:03.677Z,14.85
2017-11-13T03:24:30.262Z,13.30
2017-11-13T03:26:57.607Z,9.13
2017-11-13T03:29:25.083Z,10.60
2017-11-13T03:31:51.851Z,9.82
2017-11-13T03:34:18.634Z,9.82
2017-11-13T03:36:45.648Z,8.35
2017-11-13T03:39:12.399Z,9.55
2017-11-13T03:41:38.694Z,8.20
2017-11-13T03:44:05.014Z,9.23
2017-11-13T03:46:31.476Z,9.68
2017-11-13T03:48:58.218Z,10.13
2017-11-13T03:51:24.984Z,8.80
2017-11-13T03:53:51.304Z,7.28
2017-11-13T03:56:18.089Z,7.75
2017-11-13T03:58:45.029Z,7.00
2017-11-13T04:01:11.903Z,13.02
2017-11-13T04:03:38.645Z,7.55
2017-11-13T04:06:05.291Z,8.25
2017-11-13T04:08:31.525Z,10.82
2017-11-13T04:10:57.760Z,6.85
2017-11-13T04:13:24.108Z,6.43
2017-11-13T04:15:52.157Z,7.05
2017-11-13T04:18:19.199Z,6.82
2017-11-13T04:20:46.340Z,7.35
2017-11-13T04:23:13.243Z,7.10
2017-11-13T04:25:40.268Z,7.32
2017-11-13T04:28:06.605Z,7.68
2017-11-13T04:30:32.808Z,7.53
2017-11-13T04:32:59.974Z,6.12
2017-11-13T04:35:26.468Z,7.12
2017-11-13T04:37:53.337Z,7.20
2017-11-13T04:40:20.101Z,7.10
2017-11-13T04:42:47.116Z,5.90
2017-11-13T04:45:14.060Z,6.87
2017-11-13T04:47:41.286Z,6.72
2017-11-13T04:50:07.841Z,8.55
2017-11-13T04:52:35.071Z,7.68
2017-11-13T04:55:01.353Z,7.60
2017-11-13T04:57:27.883Z,8.18
2017-11-13T04:59:54.712Z,9.70
2017-11-13T05:02:22.220Z,8.63
2017-11-13T05:04:48.607Z,9.95
2017-11-13T05:07:15.837Z,6.20
2017-11-13T05:09:43.849Z,9.38
2017-11-13T05:12:10.820Z,8.75
2017-11-13T05:14:37.695Z,7.90
2017-11-13T05:17:04.965Z,8.88
2017-11-13T05:19:31.628Z,9.43
2017-11-13T05:21:59.112Z,8.02
2017-11-13T05:24:26.380Z,9.63
2017-11-13T05:26:52.867Z,7.28
2017-11-13T05:29:20.815Z,7.70
2017-11-13T05:31:47.605Z,6.53
2017-11-13T05:34:14.350Z,7.60
2017-11-13T05:36:42.144Z,6.85
2017-11-13T05:39:09.809Z,8.35
2017-11-13T05:41:35.995Z,6.62
2017-11-13T05:44:02.891Z,6.72
2017-11-13T05:46:29.478Z,7.47
2017-11-13T05:48:57.145Z,8.93
2017-11-13T05:51:23.500Z,7.40
2017-11-13T05:53:50.991Z,7.82
2017-11-13T05:56:17.976Z,7.87
2017-11-13T05:58:44.313Z,8.90
2017-11-13T06:01:11.606Z,9.15
2017-11-13T06:03:38.403Z,10.75
2017-11-13T06:06:04.726Z,10.07
2017-11-13T06:08:30.988Z,9.68
2017-11-13T06:10:57.295Z,9.35
2017-11-13T06:13:24.118Z,10.02
2017-11-13T06:15:51.085Z,10.55
2017-11-13T06:18:17.371Z,14.77
2017-11-13T06:20:43.851Z,9.70
2017-11-13T06:23:10.129Z,12.70
2017-11-13T06:25:37.780Z,10.75
2017-11-13T06:28:05.649Z,10.18
2017-11-13T06:30:31.876Z,13.85
2017-11-13T06:32:59.081Z,7.85
2017-11-13T06:35:25.836Z,11.30
2017-11-13T06:37:53.789Z,14.30
2017-11-13T06:40:21.055Z,13.62
2017-11-13T06:42:47.252Z,13.43
2017-11-13T06:45:13.512Z,17.00
2017-11-13T06:47:40.069Z,13.65
2017-11-13T06:50:07.201Z,13.93
2017-11-13T06:52:33.435Z,11.57
2017-11-13T06:54:59.841Z,13.27
2017-11-13T06:57:27.090Z,13.65
2017-11-13T06:59:55.102Z,12.37
2017-11-13T07:02:22.071Z,12.75
2017-11-13T07:04:48.343Z,15.82
2017-11-13T07:07:15.118Z,16.30
2017-11-13T07:09:41.333Z,15.77
2017-11-13T07:12:08.250Z,14.77
2017-11-13T07:14:35.492Z,10.00
2017-11-13T07:17:03.673Z,15.95
2017-11-13T07:19:30.698Z,15.95
2017-11-13T07:21:56.998Z,14.75
2017-11-13T07:24:23.745Z,14.13
2017-11-13T07:26:51.704Z,11.43
2017-11-13T07:29:18.508Z,10.10
2017-11-13T07:31:45.737Z,10.82
2017-11-13T07:34:11.984Z,13.80
2017-11-13T07:36:38.248Z,12.82
2017-11-13T07:39:05.090Z,15.07
2017-11-13T07:41:31.631Z,13.65
2017-11-13T07:43:58.188Z,12.32
2017-11-13T07:46:25.867Z,14.70
2017-11-13T07:48:52.083Z,15.52
2017-11-13T07:51:18.431Z,15.50
2017-11-13T07:53:44.743Z,16.67
2017-11-13T07:56:11.751Z,16.70
2017-11-13T07:58:38.487Z,13.75
2017-11-13T08:01:06.092Z,16.65
2017-11-13T08:03:32.320Z,17.92
2017-11-13T08:05:59.275Z,14.68
2017-11-13T08:08:26.522Z,14.73
2017-11-13T08:10:53.263Z,14.52
2017-11-13T08:13:19.491Z,14.02
2017-11-13T08:15:46.344Z,13.60
2017-11-13T08:18:12.574Z,15.77
2017-11-13T08:20:38.807Z,11.98
2017-11-13T08:23:05.022Z,14.57
2017-11-13T08:25:32.777Z,11.73
2017-11-13T08:28:00.209Z,14.90
2017-11-13T08:30:27.905Z,12.20
2017-11-13T08:32:54.238Z,11.65
2017-11-13T08:35:20.515Z,11.70
2017-11-13T08:37:47.086Z,11.75
2017-11-13T08:40:14.708Z,12.88
2017-11-13T08:42:41.661Z,12.60
2017-11-13T08:45:08.147Z,15.80
2017-11-13T08:47:34.356Z,10.98
2017-11-13T08:50:00.754Z,13.68
2017-11-13T08:52:28.390Z,16.65
2017-11-13T08:54:55.191Z,15.30
2017-11-13T08:57:21.464Z,12.25
2017-11-13T08:59:48.217Z,15.38
2017-11-13T09:02:14.792Z,11.98
2017-11-13T09:04:41.964Z,13.60
2017-11-13T09:07:08.879Z,13.18
2017-11-13T09:09:35.941Z,13.60
2017-11-13T09:12:02.412Z,11.32
2017-11-13T09:14:28.893Z,11.15
2017-11-13T09:16:56.444Z,11.90
2017-11-13T09:19:25.038Z,8.40
2017-11-13T09:41:21.462Z,7.93
2017-11-13T09:43:48.278Z,6.70
2017-11-13T09:46:15.897Z,7.12
2017-11-13T09:48:42.939Z,9.15
2017-11-13T09:51:10.879Z,10.15
2017-11-13T09:53:37.113Z,8.57
2017-11-13T09:56:03.889Z,7.95
2017-11-13T09:58:31.357Z,7.40
2017-11-13T10:00:57.956Z,6.57
2017-11-13T10:03:24.181Z,5.80
2017-11-13T10:05:50.829Z,5.65
2017-11-13T10:24:33.019Z,5.15
2017-11-13T10:27:00.348Z,3.33
2017-11-13T10:29:27.902Z,3.05
2017-11-13T10:31:54.184Z,3.20
2017-11-13T10:34:22.157Z,3.28
2017-11-13T10:36:50.697Z,3.10
2017-11-13T10:39:17.208Z,2.95
2017-11-13T10:41:45.239Z,3.35
2017-11-13T10:44:12.184Z,3.08
2017-11-13T10:46:38.909Z,3.85
2017-11-13T10:49:06.565Z,4.70
2017-11-13T10:51:32.825Z,3.67
2017-11-13T10:54:00.073Z,3.65
2017-11-13T10:56:26.434Z,3.78
2017-11-13T10:58:52.862Z,3.30
2017-11-13T11:01:19.637Z,3.22
2017-11-13T11:03:46.062Z,4.75
2017-11-13T11:06:13.317Z,2.80
2017-11-13T11:08:39.694Z,2.83
2017-11-13T11:11:06.554Z,2.45
2017-11-13T11:13:33.402Z,3.20
2017-11-13T11:16:02.660Z,2.83
2017-11-13T11:18:30.321Z,3.30
2017-11-13T11:21:00.929Z,2.50
2017-11-13T11:23:32.219Z,2.97
2017-11-13T11:26:04.528Z,2.90
2017-11-13T11:28:30.733Z,5.28
2017-11-13T11:31:01.525Z,4.15
2017-11-13T11:33:29.232Z,4.37
2017-11-13T11:36:01.792Z,3.35
2017-11-13T11:38:28.025Z,2.50
2017-11-13T11:41:03.227Z,3.40
2017-11-13T11:43:31.648Z,3.78
2017-11-13T11:45:59.826Z,3.47
2017-11-13T11:48:32.771Z,3.10
2017-11-13T11:51:00.279Z,2.37
2017-11-13T11:53:27.130Z,3.12
2017-11-13T11:56:08.296Z,5.65
2017-11-13T11:58:35.438Z,3.50
2017-11-13T12:01:02.501Z,5.10
2017-11-13T12:03:29.162Z,3.33
2017-11-13T12:05:57.252Z,3.50
2017-11-13T12:08:24.624Z,3.37
2017-11-13T12:10:52.906Z,3.65
2017-11-13T12:13:20.493Z,2.97
2017-11-13T12:15:47.528Z,2.58
2017-11-13T12:18:14.665Z,2.50
2017-11-13T12:20:41.719Z,2.50
2017-11-13T12:23:08.489Z,2.20
2017-11-13T12:25:35.511Z,2.00
2017-11-13T12:28:01.856Z,3.05
2017-11-13T12:30:28.700Z,4.87
2017-11-13T12:32:54.926Z,2.55
2017-11-13T12:35:22.172Z,3.33
2017-11-13T12:37:48.513Z,4.68
2017-11-13T12:40:14.747Z,2.35
2017-11-13T12:42:41.842Z,2.70
2017-11-13T12:45:08.803Z,3.83
2017-11-13T12:47:35.176Z,2.95
2017-11-13T12:50:02.571Z,2.45
2017-11-13T12:52:29.707Z,2.85
2017-11-13T12:54:56.508Z,2.72
2017-11-13T12:57:22.942Z,3.42
2017-11-13T12:59:49.209Z,3.33
2017-11-13T13:02:16.784Z,2.40
2017-11-13T13:04:43.800Z,3.83
2017-11-13T13:07:10.076Z,2.42
2017-11-13T13:09:36.332Z,2.50
2017-11-13T13:12:02.965Z,4.12
2017-11-13T13:14:29.846Z,2.65
2017-11-13T13:16:56.599Z,2.60
2017-11-13T13:19:24.042Z,3.72
2017-11-13T13:21:51.019Z,5.28
2017-11-13T13:24:18.592Z,6.12
2017-11-13T13:26:45.956Z,5.10
2017-11-13T13:29:12.698Z,5.65
2017-11-13T13:31:38.960Z,2.53
2017-11-13T13:34:06.339Z,2.62
2017-11-13T13:36:33.453Z,2.83
2017-11-13T13:38:59.668Z,3.08
2017-11-13T13:41:26.432Z,4.18
2017-11-13T13:43:53.502Z,2.37
2017-11-13T13:46:21.173Z,3.40
2017-11-13T13:48:48.146Z,3.90
2017-11-13T13:51:14.502Z,4.82
2017-11-13T13:53:41.042Z,4.70
2017-11-13T13:56:07.303Z,5.90
2017-11-13T13:58:34.714Z,3.55
2017-11-13T14:01:02.395Z,4.80
2017-11-13T14:03:30.035Z,4.25
2017-11-13T14:05:57.076Z,8.15
2017-11-13T14:08:23.823Z,5.55
2017-11-13T14:10:50.846Z,5.80
2017-11-13T14:13:17.284Z,5.97
2017-11-13T14:15:44.301Z,4.07
2017-11-13T14:18:11.370Z,5.70
2017-11-13T14:20:38.106Z,5.40
2017-11-13T14:23:04.774Z,4.90
2017-11-13T14:25:31.641Z,5.93
2017-11-13T14:27:58.314Z,5.37
2017-11-13T14:30:24.790Z,4.95
2017-11-13T14:32:51.054Z,6.90
2017-11-13T14:35:17.498Z,5.97
2017-11-13T14:37:45.394Z,5.50
2017-11-13T14:40:12.921Z,5.37
2017-11-13T14:42:39.922Z,4.85
2017-11-13T14:45:06.928Z,4.37
2017-11-13T14:47:33.916Z,4.50
2017-11-13T14:50:00.114Z,4.65
2017-11-13T14:52:26.978Z,5.53
2017-11-13T14:54:53.374Z,5.70
2017-11-13T14:57:19.852Z,7.37
2017-11-13T14:59:46.729Z,4.30
2017-11-13T15:02:14.300Z,5.53
2017-11-13T15:04:42.001Z,4.65
2017-11-13T15:07:08.703Z,4.80
2017-11-13T15:09:35.896Z,6.05
2017-11-13T15:12:02.169Z,8.52
2017-11-13T15:14:30.192Z,3.87
2017-11-13T15:16:57.224Z,4.75
2017-11-13T15:19:23.645Z,5.18
2017-11-13T15:21:50.509Z,4.40
2017-11-13T15:24:16.867Z,5.12
2017-11-13T15:26:44.016Z,4.45
2017-11-13T15:29:10.645Z,5.03
2017-11-13T15:31:37.643Z,4.00
2017-11-13T15:34:05.251Z,4.75
2017-11-13T15:36:31.545Z,5.05
2017-11-13T15:38:58.009Z,6.03
2017-11-13T15:41:25.619Z,6.43
2017-11-13T15:43:52.612Z,6.85
2017-11-13T15:46:19.069Z,6.68
2017-11-13T15:48:46.043Z,5.72
2017-11-13T15:51:13.635Z,5.85
2017-11-13T15:53:39.885Z,7.65
2017-11-13T15:56:06.108Z,8.60
2017-11-13T15:58:32.991Z,6.22
2017-11-13T16:01:00.464Z,5.03
2017-11-13T16:03:27.553Z,6.70
2017-11-13T16:05:54.035Z,5.37
2017-11-13T16:08:21.570Z,4.85
2017-11-13T16:10:47.799Z,5.35
2017-11-13T16:13:14.546Z,6.18
2017-11-13T16:15:40.782Z,6.87
2017-11-13T16:18:08.358Z,5.70
2017-11-13T16:20:34.600Z,6.28
2017-11-13T16:23:00.883Z,5.40
2017-11-13T16:25:27.205Z,6.32
2017-11-13T16:27:53.710Z,5.57
2017-11-13T16:30:26.870Z,5.20
2017-11-13T16:32:53.738Z,7.20
2017-11-13T16:35:20.008Z,6.65
2017-11-13T16:37:46.506Z,8.00
2017-11-13T16:40:13.550Z,6.53
2017-11-13T16:42:39.860Z,6.37
2017-11-13T16:45:06.623Z,6.47
2017-11-13T16:47:33.754Z,7.03
2017-11-13T16:50:00.521Z,8.93
2017-11-13T16:52:26.744Z,7.50
2017-11-13T16:54:53.993Z,8.80
2017-11-13T16:57:20.301Z,9.48
2017-11-13T16:59:48.022Z,10.65
2017-11-13T17:02:14.861Z,9.20
2017-11-13T17:04:41.276Z,7.20
2017-11-13T17:07:08.377Z,5.80
2017-11-13T17:09:35.421Z,6.25
2017-11-13T17:12:03.108Z,8.60
2017-11-13T17:14:30.367Z,7.20
2017-11-13T17:16:57.391Z,7.90
2017-11-13T17:19:24.345Z,8.25
2017-11-13T17:21:51.769Z,8.77
2017-11-13T17:24:18.880Z,8.18
2017-11-13T17:26:45.077Z,7.25
2017-11-13T17:29:11.919Z,7.00
2017-11-13T17:31:38.849Z,7.82
2017-11-13T17:34:05.981Z,8.07
2017-11-13T17:36:33.521Z,10.80
2017-11-13T17:38:59.731Z,10.80
2017-11-13T17:41:26.069Z,7.32
2017-11-13T17:43:52.849Z,8.02
2017-11-13T17:46:19.844Z,10.18
2017-11-13T17:48:46.479Z,13.62
2017-11-13T17:51:14.148Z,11.15
2017-11-13T17:53:40.651Z,10.73
2017-11-13T17:56:07.492Z,9.70
2017-11-13T17:58:33.707Z,10.48
2017-11-13T18:01:00.035Z,9.32
2017-11-13T18:03:26.263Z,8.68
2017-11-13T18:05:52.483Z,17.67
2017-11-13T18:08:20.075Z,15.75
2017-11-13T18:10:46.275Z,16.83
2017-11-13T18:13:13.052Z,10.00
2017-11-13T18:15:39.275Z,9.45
2017-11-13T18:18:06.112Z,9.60
2017-11-13T18:20:32.509Z,8.82
2017-11-13T18:23:00.105Z,8.90
2017-11-13T18:25:26.885Z,10.52
2017-11-13T18:27:53.931Z,11.32
2017-11-13T18:30:20.204Z,11.93
2017-11-13T18:32:46.454Z,10.02
2017-11-13T18:35:13.206Z,10.68
2017-11-13T18:37:39.476Z,7.45
2017-11-13T18:40:06.631Z,8.38
2017-11-13T18:42:33.774Z,11.00
2017-11-13T18:45:01.379Z,10.85
2017-11-13T18:47:27.645Z,8.68
2017-11-13T18:49:53.901Z,9.38
2017-11-13T18:52:20.882Z,9.10
2017-11-13T18:54:47.694Z,10.90
2017-11-13T18:57:13.918Z,17.60
2017-11-13T18:59:40.144Z,17.00
2017-11-13T19:02:06.354Z,16.95
2017-11-13T19:04:32.724Z,10.77
2017-11-13T19:07:01.030Z,9.05
2017-11-13T19:09:27.266Z,12.02
2017-11-13T19:11:53.511Z,9.60
2017-11-13T19:14:19.776Z,9.50
2017-11-13T19:16:46.544Z,11.18
2017-11-13T19:19:13.288Z,8.18
2017-11-13T19:21:40.053Z,7.30
2017-11-13T19:24:06.281Z,9.60
2017-11-13T19:26:32.632Z,11.52
2017-11-13T19:28:59.791Z,7.87
2017-11-13T19:31:26.851Z,6.72
2017-11-13T19:33:53.580Z,10.43
2017-11-13T19:36:19.821Z,8.18
2017-11-13T19:38:46.070Z,11.07
2017-11-13T19:41:12.949Z,7.05
2017-11-13T19:43:39.845Z,7.72
2017-11-13T19:46:07.973Z,10.30
2017-11-13T19:48:35.222Z,20.65
2017-11-13T19:51:02.095Z,8.20
2017-11-13T19:53:28.476Z,8.68
2017-11-13T19:55:55.305Z,9.98
2017-11-13T19:58:22.413Z,12.45
2017-11-13T20:00:49.554Z,12.57
2017-11-13T20:03:17.243Z,9.00
2017-11-13T20:05:43.685Z,10.68
2017-11-13T20:08:09.892Z,10.80
2017-11-13T20:10:36.119Z,10.50
2017-11-13T20:13:02.327Z,10.40
2017-11-13T20:15:29.509Z,10.52
2017-11-13T20:17:56.895Z,14.07
2017-11-13T20:20:23.101Z,11.48
2017-11-13T20:22:49.369Z,8.95
2017-11-13T20:25:15.704Z,11.15
2017-11-13T20:27:42.026Z,12.07
2017-11-13T20:30:08.244Z,9.70
2017-11-13T20:32:34.853Z,11.57
2017-11-13T20:35:01.877Z,8.63
2017-11-13T20:37:28.077Z,9.30
2017-11-13T20:39:54.318Z,9.85
2017-11-13T20:42:21.438Z,9.52
2017-11-13T20:44:48.022Z,13.70
2017-11-13T20:47:15.371Z,9.43
2017-11-13T20:49:42.102Z,10.23
2017-11-13T20:52:09.225Z,8.43
2017-11-13T20:54:35.477Z,9.88
2017-11-13T20:57:03.039Z,10.50
2017-11-13T20:59:30.005Z,13.35
2017-11-13T21:01:56.477Z,8.10
2017-11-13T21:04:23.492Z,9.68
2017-11-13T21:06:49.734Z,9.52
2017-11-13T21:09:16.339Z,12.07
2017-11-13T21:11:43.407Z,7.72
2017-11-13T21:14:09.923Z,11.88
2017-11-13T21:16:37.807Z,11.93
2017-11-13T21:19:04.894Z,10.95
2017-11-13T21:21:32.114Z,12.48
2017-11-13T21:23:58.475Z,8.27
2017-11-13T21:26:24.904Z,11.10
2017-11-13T21:28:51.308Z,9.75
2017-11-13T21:31:18.485Z,8.27
2017-11-13T21:33:44.788Z,9.30
2017-11-13T21:36:12.035Z,9.82
2017-11-13T21:38:38.282Z,12.55
2017-11-13T21:41:09.986Z,19.08
2017-11-13T21:43:37.650Z,17.23
2017-11-13T21:46:05.330Z,12.55
2017-11-13T21:48:32.045Z,14.57
2017-11-13T21:51:00.221Z,12.25
2017-11-13T21:53:27.187Z,14.02
2017-11-13T21:55:54.449Z,13.27
2017-11-13T21:58:20.879Z,11.20
2017-11-13T22:00:47.103Z,13.68
2017-11-13T22:03:14.310Z,16.37
2017-11-13T22:05:41.800Z,14.45
2017-11-13T22:08:08.683Z,19.87
2017-11-13T22:10:34.882Z,33.10
2017-11-13T22:13:01.718Z,29.10
2017-11-13T22:15:28.972Z,24.20
2017-11-13T22:17:55.802Z,21.80
2017-11-13T22:20:22.100Z,15.05
2017-11-13T22:22:48.375Z,16.75
2017-11-13T22:25:15.399Z,16.27
2017-11-13T22:27:43.671Z,13.25
2017-11-13T22:30:11.238Z,21.85
2017-11-13T22:32:38.729Z,22.00
2017-11-13T22:35:05.495Z,19.83
2017-11-13T22:37:31.908Z,28.08
2017-11-13T22:39:58.931Z,27.73
2017-11-13T22:42:25.160Z,18.12
2017-11-13T22:44:52.828Z,19.70
2017-11-13T22:47:20.647Z,24.12
2017-11-13T22:49:48.386Z,19.33
2017-11-13T22:52:15.993Z,17.67
2017-11-13T22:54:42.209Z,17.25
2017-11-13T22:57:09.612Z,24.77
2017-11-13T22:59:36.087Z,21.92
2017-11-13T23:02:02.462Z,15.75
2017-11-13T23:04:29.238Z,19.37
2017-11-13T23:06:56.196Z,17.23
2017-11-13T23:09:22.567Z,19.98
2017-11-13T23:11:50.217Z,24.37
2017-11-13T23:14:17.543Z,17.67
2017-11-13T23:16:43.866Z,12.65
2017-11-13T23:19:10.262Z,12.88
2017-11-13T23:21:37.273Z,10.02
2017-11-13T23:24:04.336Z,13.60
2017-11-13T23:26:30.535Z,10.02
2017-11-13T23:28:57.940Z,10.90
2017-11-13T23:31:24.311Z,9.00
2017-11-13T23:33:50.673Z,14.43
2017-11-13T23:36:17.922Z,9.20
2017-11-13T23:38:44.917Z,10.75
2017-11-13T23:41:11.455Z,11.45
2017-11-13T23:43:40.370Z,9.40
2017-11-13T23:46:07.575Z,14.40
2017-11-13T23:48:34.403Z,17.85
2017-11-13T23:51:01.250Z,18.42
2017-11-13T23:53:28.514Z,13.93
2017-11-13T23:55:56.040Z,23.08
2017-11-13T23:58:22.859Z,15.68
